createdAt,value
2016-05-17T00:00:22.922Z,63.07
2016-05-17T00:01:22.893Z,62.97
2016-05-17T00:02:22.865Z,62.97
2016-05-17T00:03:22.852Z,62.68
2016-05-17T00:04:22.823Z,63.04
2016-05-17T00:05:22.794Z,63.26
2016-05-17T00:06:22.766Z,63.32
2016-05-17T00:07:22.738Z,63.35
2016-05-17T00:08:22.724Z,63.35
2016-05-17T00:09:22.696Z,63.13
2016-05-17T00:10:22.667Z,63.13
2016-05-17T00:11:22.655Z,63.07
2016-05-17T00:12:22.627Z,63.32
2016-05-17T00:13:22.597Z,63.42
2016-05-17T00:14:22.585Z,63.64
2016-05-17T00:15:22.555Z,63.73
2016-05-17T00:16:22.527Z,63.45
2016-05-17T00:17:22.499Z,63.35
2016-05-17T00:18:22.485Z,63.45
2016-05-17T00:19:22.458Z,63.45
2016-05-17T00:20:22.429Z,63.42
2016-05-17T00:21:22.401Z,63.7
2016-05-17T00:22:22.388Z,63.42
2016-05-17T00:23:22.374Z,63.89
2016-05-17T00:24:22.330Z,63.6
2016-05-17T00:25:22.317Z,63.51
2016-05-17T00:26:22.289Z,63.32
2016-05-17T00:27:22.260Z,63.7
2016-05-17T00:28:22.232Z,63.32
2016-05-17T00:29:22.218Z,63.32
2016-05-17T00:30:22.190Z,63.23
2016-05-17T00:31:22.161Z,63.32
2016-05-17T00:32:22.134Z,63.42
2016-05-17T00:33:22.120Z,63.23
2016-05-17T00:34:22.091Z,63.8
2016-05-17T00:35:22.063Z,63.42
2016-05-17T00:36:22.050Z,63.32
2016-05-17T00:37:22.022Z,63.13
2016-05-17T00:38:21.993Z,63.23
2016-05-17T00:39:21.964Z,63.32
2016-05-17T00:40:21.952Z,63.6
2016-05-17T00:41:21.922Z,63.89
2016-05-17T00:42:21.894Z,63.8
2016-05-17T00:43:21.866Z,63.8
2016-05-17T00:44:21.853Z,63.89
2016-05-17T00:45:21.825Z,63.6
2016-05-17T00:46:21.796Z,63.99
2016-05-17T00:47:21.767Z,63.89
2016-05-17T00:48:21.755Z,63.7
2016-05-17T00:49:21.726Z,63.51
2016-05-17T00:50:21.696Z,63.7
2016-05-17T00:51:21.699Z,63.89
2016-05-17T00:52:21.655Z,63.99
2016-05-17T00:53:21.627Z,63.8
2016-05-17T00:54:21.598Z,64.28
2016-05-17T00:55:21.585Z,64.18
2016-05-17T00:56:21.557Z,64.47
2016-05-17T00:57:21.528Z,64.28
2016-05-17T00:58:21.500Z,63.99
2016-05-17T00:59:21.487Z,64.08
2016-05-17T01:00:21.459Z,64.37
2016-05-17T01:01:21.430Z,63.8
2016-05-17T01:02:21.417Z,64.47
2016-05-17T01:03:21.389Z,64.65
2016-05-17T01:04:21.359Z,64.28
2016-05-17T01:05:21.331Z,64.37
2016-05-17T01:06:21.317Z,64.28
2016-05-17T01:07:21.290Z,64.56
2016-05-17T01:08:21.277Z,64.65
2016-05-17T01:09:21.233Z,64.56
2016-05-17T01:10:21.220Z,64.65
2016-05-17T01:11:21.191Z,64.65
2016-05-17T01:12:21.163Z,64.47
2016-05-17T01:13:21.150Z,64.56
2016-05-17T01:14:21.121Z,64.65
2016-05-17T01:15:21.092Z,64.37
2016-05-17T01:16:21.064Z,64.28
2016-05-17T01:17:21.052Z,64.37
2016-05-17T01:18:21.022Z,64.56
2016-05-17T01:19:20.994Z,63.99
2016-05-17T01:20:20.966Z,64.65
2016-05-17T01:21:20.952Z,64.47
2016-05-17T01:22:20.924Z,64.47
2016-05-17T01:23:20.895Z,64.65
2016-05-17T01:24:20.882Z,64.56
2016-05-17T01:25:20.854Z,64.65
2016-05-17T01:26:20.826Z,64.65
2016-05-17T01:27:20.796Z,64.65
2016-05-17T01:28:20.784Z,64.65
2016-05-17T01:29:20.754Z,64.56
2016-05-17T01:30:20.726Z,64.47
2016-05-17T01:31:20.698Z,64.75
2016-05-17T01:32:20.684Z,64.75
2016-05-17T01:33:20.657Z,64.65
2016-05-17T01:34:20.628Z,64.65
2016-05-17T01:35:20.615Z,64.47
2016-05-17T01:36:20.587Z,64.65
2016-05-17T01:37:20.558Z,64.47
2016-05-17T01:38:20.529Z,64.47
2016-05-17T01:39:20.516Z,64.47
2016-05-17T01:40:20.488Z,64.47
2016-05-17T01:41:20.459Z,64.37
2016-05-17T01:42:20.431Z,64.37
2016-05-17T01:43:20.417Z,64.47
2016-05-17T01:44:20.389Z,64.28
2016-05-17T01:45:20.360Z,64.59
2016-05-17T01:46:20.332Z,63.89
2016-05-17T01:47:20.319Z,63.8
2016-05-17T01:48:20.290Z,63.92
2016-05-17T01:49:20.263Z,64.21
2016-05-17T01:50:20.249Z,64.02
2016-05-17T01:51:20.221Z,64.12
2016-05-17T01:52:20.192Z,63.83
2016-05-17T01:53:20.163Z,63.73
2016-05-17T01:54:20.151Z,63.92
2016-05-17T01:55:20.121Z,63.83
2016-05-17T01:56:20.093Z,63.73
2016-05-17T01:57:20.065Z,63.73
2016-05-17T01:58:20.052Z,63.92
2016-05-17T01:59:20.023Z,63.92
2016-05-17T02:00:19.995Z,63.92
2016-05-17T02:01:19.966Z,63.92
2016-05-17T02:02:19.953Z,64.02
2016-05-17T02:03:19.925Z,64.02
2016-05-17T02:04:19.895Z,64.02
2016-05-17T02:05:19.884Z,63.92
2016-05-17T02:06:19.854Z,64.02
2016-05-17T02:07:19.826Z,63.73
2016-05-17T02:08:19.798Z,63.73
2016-05-17T02:09:19.784Z,63.83
2016-05-17T02:10:19.756Z,63.73
2016-05-17T02:11:19.728Z,63.73
2016-05-17T02:12:19.714Z,63.64
2016-05-17T02:13:19.686Z,63.73
2016-05-17T02:14:19.658Z,63.73
2016-05-17T02:15:19.628Z,63.64
2016-05-17T02:16:19.616Z,63.73
2016-05-17T02:17:19.588Z,63.92
2016-05-17T02:18:19.558Z,63.64
2016-05-17T02:19:19.547Z,64.12
2016-05-17T02:20:19.516Z,64.21
2016-05-17T02:21:19.488Z,64.12
2016-05-17T02:22:19.491Z,64.59
2016-05-17T02:23:19.447Z,64.5
2016-05-17T02:24:19.622Z,64.5
2016-05-17T02:25:19.390Z,64.5
2016-05-17T02:26:19.377Z,64.4
2016-05-17T02:27:19.349Z,64.31
2016-05-17T02:28:19.320Z,64.31
2016-05-17T02:29:19.307Z,64.69
2016-05-17T02:30:19.279Z,64.97
2016-05-17T02:31:19.251Z,65.16
2016-05-17T02:32:19.221Z,64.65
2016-05-17T02:33:19.209Z,65.03
2016-05-17T02:34:19.179Z,64.87
2016-05-17T02:35:19.151Z,65.32
2016-05-17T02:36:19.122Z,65.23
2016-05-17T02:37:19.329Z,64.94
2016-05-17T02:38:19.097Z,65.61
2016-05-17T02:39:19.053Z,65.73
2016-05-17T02:40:19.118Z,65.61
2016-05-17T02:41:19.011Z,65.51
2016-05-17T02:42:18.983Z,65.32
2016-05-17T02:43:18.953Z,65.32
2016-05-17T02:44:18.941Z,65.36
2016-05-17T02:45:18.913Z,65.42
2016-05-17T02:46:18.884Z,65.8
2016-05-17T02:47:18.872Z,65.61
2016-05-17T02:48:18.842Z,65.42
2016-05-17T02:49:18.813Z,66.02
2016-05-17T02:50:18.785Z,65.8
2016-05-17T02:51:18.773Z,65.83
2016-05-17T02:52:18.744Z,66.08
2016-05-17T02:53:18.716Z,65.83
2016-05-17T02:54:18.687Z,65.8
2016-05-17T02:55:18.674Z,66.11
2016-05-17T02:56:18.646Z,66.37
2016-05-17T02:57:18.616Z,66.08
2016-05-17T02:58:18.604Z,65.89
2016-05-17T02:59:18.576Z,66.11
2016-05-17T03:00:18.547Z,66.5
2016-05-17T03:01:18.518Z,66.46
2016-05-17T03:02:18.505Z,66.31
2016-05-17T03:03:18.476Z,66.27
2016-05-17T03:04:18.448Z,66.37
2016-05-17T03:05:18.420Z,66.5
2016-05-17T03:06:18.406Z,66.5
2016-05-17T03:07:18.378Z,66.21
2016-05-17T03:08:18.350Z,66.46
2016-05-17T03:09:18.336Z,66.08
2016-05-17T03:10:18.308Z,66.37
2016-05-17T03:11:18.279Z,66.66
2016-05-17T03:12:18.251Z,66.97
2016-05-17T03:13:18.238Z,66.75
2016-05-17T03:14:18.209Z,66.85
2016-05-17T03:15:18.180Z,66.69
2016-05-17T03:16:18.153Z,66.69
2016-05-17T03:17:18.139Z,66.56
2016-05-17T03:18:18.111Z,66.66
2016-05-17T03:19:18.083Z,66.46
2016-05-17T03:20:18.069Z,66.66
2016-05-17T03:21:18.040Z,66.37
2016-05-17T03:22:18.012Z,66.56
2016-05-17T03:23:17.999Z,66.75
2016-05-17T03:24:17.971Z,66.94
2016-05-17T03:25:17.941Z,66.66
2016-05-17T03:26:17.944Z,66.56
2016-05-17T03:27:17.901Z,66.46
2016-05-17T03:28:17.904Z,66.56
2016-05-17T03:29:17.843Z,66.66
2016-05-17T03:30:17.815Z,66.85
2016-05-17T03:31:17.801Z,66.94
2016-05-17T03:32:17.790Z,66.75
2016-05-17T03:33:17.746Z,67.13
2016-05-17T03:34:17.732Z,66.75
2016-05-17T03:35:17.704Z,66.94
2016-05-17T03:36:17.690Z,67.13
2016-05-17T03:37:18.271Z,66.94
2016-05-17T03:38:17.617Z,67.03
2016-05-17T03:39:17.605Z,67.22
2016-05-17T03:40:17.576Z,67.41
2016-05-17T03:41:17.548Z,67.13
2016-05-17T03:42:17.534Z,67.22
2016-05-17T03:43:17.506Z,67.41
2016-05-17T03:44:17.478Z,67.22
2016-05-17T03:45:17.449Z,66.94
2016-05-17T03:46:17.436Z,67.41
2016-05-17T03:47:17.407Z,67.03
2016-05-17T03:48:17.379Z,66.56
2016-05-17T03:49:17.366Z,66.94
2016-05-17T03:50:17.337Z,66.75
2016-05-17T03:51:17.309Z,66.66
2016-05-17T03:52:17.671Z,67.03
2016-05-17T03:53:17.267Z,66.85
2016-05-17T03:54:17.238Z,66.85
2016-05-17T03:55:17.210Z,66.66
2016-05-17T03:56:17.182Z,66.85
2016-05-17T03:57:17.185Z,66.85
2016-05-17T03:58:17.140Z,66.94
2016-05-17T03:59:17.112Z,66.75
2016-05-17T04:00:17.099Z,66.56
2016-05-17T04:01:17.070Z,66.56
2016-05-17T04:02:17.041Z,66.66
2016-05-17T04:03:17.012Z,66.75
2016-05-17T04:04:17.001Z,66.27
2016-05-17T04:05:16.972Z,66.56
2016-05-17T04:06:16.943Z,66.75
2016-05-17T04:07:16.915Z,66.85
2016-05-17T04:08:16.901Z,66.21
2016-05-17T04:09:16.873Z,66.27
2016-05-17T04:10:16.844Z,66.31
2016-05-17T04:11:16.831Z,66.37
2016-05-17T04:12:16.803Z,66.46
2016-05-17T04:13:16.775Z,66.18
2016-05-17T04:14:16.745Z,66.31
2016-05-17T04:15:16.733Z,65.83
2016-05-17T04:16:16.704Z,65.92
2016-05-17T04:17:16.675Z,65.83
2016-05-17T04:18:16.647Z,65.45
2016-05-17T04:19:16.633Z,65.64
2016-05-17T04:20:16.606Z,65.92
2016-05-17T04:21:16.578Z,65.36
2016-05-17T04:22:16.564Z,65.26
2016-05-17T04:23:16.536Z,65.26
2016-05-17T04:24:16.507Z,65.36
2016-05-17T04:25:16.494Z,65.45
2016-05-17T04:26:16.465Z,65.45
2016-05-17T04:27:16.437Z,64.87
2016-05-17T04:28:16.408Z,65.16
2016-05-17T04:29:16.396Z,65.36
2016-05-17T04:30:16.366Z,64.97
2016-05-17T04:31:16.338Z,64.97
2016-05-17T04:32:16.310Z,64.97
2016-05-17T04:33:16.296Z,64.78
2016-05-17T04:34:16.268Z,65.07
2016-05-17T04:35:16.254Z,64.78
2016-05-17T04:36:16.227Z,64.69
2016-05-17T04:37:16.199Z,64.5
2016-05-17T04:38:16.170Z,64.4
2016-05-17T04:39:16.157Z,64.59
2016-05-17T04:40:16.128Z,64.78
2016-05-17T04:41:16.100Z,64.4
2016-05-17T04:42:16.070Z,64.5
2016-05-17T04:43:16.058Z,64.4
2016-05-17T04:44:16.029Z,64.59
2016-05-17T04:45:16.001Z,64.21
2016-05-17T04:46:15.989Z,63.92
2016-05-17T04:47:15.959Z,64.12
2016-05-17T04:48:15.931Z,63.92
2016-05-17T04:49:15.917Z,63.73
2016-05-17T04:50:15.889Z,63.83
2016-05-17T04:51:15.860Z,63.92
2016-05-17T04:52:15.926Z,63.83
2016-05-17T04:53:15.820Z,64.02
2016-05-17T04:54:15.791Z,64.21
2016-05-17T04:55:15.763Z,64.02
2016-05-17T04:56:15.749Z,64.12
2016-05-17T04:57:15.721Z,64.12
2016-05-17T04:58:15.692Z,64.12
2016-05-17T04:59:15.679Z,64.02
2016-05-17T05:00:15.651Z,63.83
2016-05-17T05:01:15.622Z,63.45
2016-05-17T05:02:15.610Z,64.02
2016-05-17T05:03:15.580Z,64.02
2016-05-17T05:04:15.552Z,64.02
2016-05-17T05:05:15.539Z,64.12
2016-05-17T05:06:15.510Z,63.83
2016-05-17T05:07:15.481Z,63.92
2016-05-17T05:08:15.453Z,63.83
2016-05-17T05:09:15.462Z,64.02
2016-05-17T05:10:15.476Z,63.54
2016-05-17T05:11:15.491Z,63.64
2016-05-17T05:12:15.520Z,63.17
2016-05-17T05:13:15.535Z,63.26
2016-05-17T05:14:15.536Z,63.45
2016-05-17T05:15:15.538Z,64.12
2016-05-17T05:16:15.526Z,63.83
2016-05-17T05:17:15.527Z,63.26
2016-05-17T05:18:15.515Z,63.45
2016-05-17T05:19:15.497Z,63.92
2016-05-17T05:20:15.473Z,63.45
2016-05-17T05:21:15.466Z,63.64
2016-05-17T05:22:15.661Z,63.45
2016-05-17T05:23:15.418Z,63.73
2016-05-17T05:24:15.410Z,63.26
2016-05-17T05:25:15.383Z,63.39
2016-05-17T05:26:15.357Z,63
2016-05-17T05:27:15.341Z,63
2016-05-17T05:28:15.314Z,63
2016-05-17T05:29:15.288Z,63.1
2016-05-17T05:30:15.276Z,62.72
2016-05-17T05:31:15.248Z,63.2
2016-05-17T05:32:15.220Z,63.2
2016-05-17T05:33:15.208Z,63
2016-05-17T05:34:15.181Z,62.91
2016-05-17T05:35:15.152Z,62.72
2016-05-17T05:36:15.140Z,62.72
2016-05-17T05:37:15.112Z,62.62
2016-05-17T05:38:15.084Z,62.72
2016-05-17T05:39:15.071Z,62.43
2016-05-17T05:40:15.043Z,62.15
2016-05-17T05:41:15.013Z,62.15
2016-05-17T05:42:15.001Z,62.24
2016-05-17T05:43:14.973Z,61.96
2016-05-17T05:44:14.944Z,61.96
2016-05-17T05:45:14.931Z,62.43
2016-05-17T05:46:14.902Z,62.05
2016-05-17T05:47:14.874Z,62.43
2016-05-17T05:48:14.861Z,61.96
2016-05-17T05:49:14.833Z,62.05
2016-05-17T05:50:14.819Z,62.05
2016-05-17T05:51:14.790Z,61.48
2016-05-17T05:52:14.762Z,61.67
2016-05-17T05:53:14.750Z,61.29
2016-05-17T05:54:14.721Z,61.48
2016-05-17T05:55:14.693Z,61.67
2016-05-17T05:56:14.679Z,60.81
2016-05-17T05:57:14.651Z,60.81
2016-05-17T05:58:14.623Z,60.81
2016-05-17T05:59:14.609Z,60.72
2016-05-17T06:00:14.581Z,60.55
2016-05-17T06:01:14.568Z,60.55
2016-05-17T06:02:14.539Z,60.65
2016-05-17T06:03:14.511Z,60.65
2016-05-17T06:04:14.498Z,60.27
2016-05-17T06:05:14.469Z,60.33
2016-05-17T06:06:14.456Z,60.08
2016-05-17T06:07:14.427Z,59.99
2016-05-17T06:08:14.399Z,60.36
2016-05-17T06:09:14.386Z,60.46
2016-05-17T06:10:14.358Z,59.7
2016-05-17T06:11:14.329Z,60.08
2016-05-17T06:12:14.316Z,59.7
2016-05-17T06:13:14.287Z,59.99
2016-05-17T06:14:14.274Z,59.99
2016-05-17T06:15:14.246Z,59.22
2016-05-17T06:16:14.218Z,59.41
2016-05-17T06:17:14.204Z,59.22
2016-05-17T06:18:14.176Z,59.31
2016-05-17T06:19:14.163Z,58.84
2016-05-17T06:20:14.134Z,58.65
2016-05-17T06:21:14.107Z,58.26
2016-05-17T06:22:14.093Z,58.46
2016-05-17T06:23:14.064Z,58.65
2016-05-17T06:24:14.051Z,58.55
2016-05-17T06:25:14.023Z,57.79
2016-05-17T06:26:13.995Z,58.17
2016-05-17T06:27:13.982Z,57.79
2016-05-17T06:28:13.954Z,58.17
2016-05-17T06:29:13.924Z,57.6
2016-05-17T06:30:13.912Z,57.6
2016-05-17T06:31:13.898Z,57.7
2016-05-17T06:32:13.870Z,57.7
2016-05-17T06:33:13.842Z,57.12
2016-05-17T06:34:13.829Z,57.41
2016-05-17T06:35:13.800Z,57.22
2016-05-17T06:36:13.787Z,57.24
2016-05-17T06:37:13.759Z,56.87
2016-05-17T06:38:13.730Z,56.48
2016-05-17T06:39:13.717Z,56.1
2016-05-17T06:40:13.688Z,56.2
2016-05-17T06:41:13.675Z,56.58
2016-05-17T06:42:13.663Z,56.01
2016-05-17T06:43:13.635Z,55.82
2016-05-17T06:44:13.605Z,55.53
2016-05-17T06:45:13.593Z,55.24
2016-05-17T06:46:13.564Z,55.24
2016-05-17T06:47:13.535Z,55.62
2016-05-17T06:48:13.523Z,55.34
2016-05-17T06:49:13.493Z,55.72
2016-05-17T06:50:13.590Z,54.86
2016-05-17T06:51:13.452Z,54.38
2016-05-17T06:52:13.502Z,54.57
2016-05-17T06:53:13.411Z,54.48
2016-05-17T06:54:13.382Z,54.48
2016-05-17T06:55:13.370Z,53.72
2016-05-17T06:56:13.340Z,53.72
2016-05-17T06:57:13.328Z,53.84
2016-05-17T06:58:13.314Z,53.84
2016-05-17T06:59:13.287Z,53.55
2016-05-17T07:00:13.258Z,52.88
2016-05-17T07:01:13.245Z,53.08
2016-05-17T07:02:13.216Z,53.08
2016-05-17T07:03:13.203Z,52.59
2016-05-17T07:04:13.175Z,52.59
2016-05-17T07:05:13.161Z,52.98
2016-05-17T07:06:13.149Z,52.12
2016-05-17T07:07:13.120Z,52.03
2016-05-17T07:08:13.092Z,51.83
2016-05-17T07:09:13.079Z,51.93
2016-05-17T07:10:13.066Z,51.54
2016-05-17T07:11:13.037Z,51.45
2016-05-17T07:12:13.024Z,51.38
2016-05-17T07:13:12.996Z,51.19
2016-05-17T07:14:12.983Z,50.9
2016-05-17T07:15:12.954Z,50.9
2016-05-17T07:16:12.941Z,50.81
2016-05-17T07:17:12.913Z,51.48
2016-05-17T07:18:12.900Z,50.43
2016-05-17T07:19:12.871Z,50.9
2016-05-17T07:20:12.859Z,50.43
2016-05-17T07:21:12.845Z,50.33
2016-05-17T07:22:12.879Z,50.52
2016-05-17T07:23:12.788Z,50.62
2016-05-17T07:24:12.806Z,50.33
2016-05-17T07:25:12.763Z,50.52
2016-05-17T07:26:12.734Z,49.95
2016-05-17T07:27:12.721Z,49.98
2016-05-17T07:28:12.693Z,49.88
2016-05-17T07:29:12.679Z,50.16
2016-05-17T07:30:12.651Z,50.35
2016-05-17T07:31:12.638Z,49.88
2016-05-17T07:32:12.625Z,49.78
2016-05-17T07:33:12.597Z,50.16
2016-05-17T07:34:12.584Z,49.3
2016-05-17T07:35:12.555Z,49.49
2016-05-17T07:36:12.542Z,49.3
2016-05-17T07:37:12.514Z,48.93
2016-05-17T07:38:12.500Z,48.85
2016-05-17T07:39:12.488Z,48.38
2016-05-17T07:40:12.459Z,48.75
2016-05-17T07:41:12.446Z,48.85
2016-05-17T07:42:12.433Z,48.47
2016-05-17T07:43:12.421Z,48.47
2016-05-17T07:44:12.391Z,48.38
2016-05-17T07:45:12.363Z,48.57
2016-05-17T07:46:12.349Z,47.89
2016-05-17T07:47:12.338Z,47.89
2016-05-17T07:48:12.310Z,47.8
2016-05-17T07:49:12.296Z,47.32
2016-05-17T07:50:12.283Z,47.71
2016-05-17T07:51:12.254Z,47.42
2016-05-17T07:52:12.241Z,47.13
2016-05-17T07:53:12.229Z,46.87
2016-05-17T07:54:12.200Z,47.06
2016-05-17T07:55:12.187Z,46.58
2016-05-17T07:56:12.173Z,46.1
2016-05-17T07:57:12.146Z,46.2
2016-05-17T07:58:12.132Z,45.91
2016-05-17T07:59:12.120Z,45.53
2016-05-17T08:00:12.107Z,46.1
2016-05-17T08:01:12.078Z,45.62
2016-05-17T08:02:12.097Z,45.24
2016-05-17T08:03:12.068Z,45.34
2016-05-17T08:04:12.055Z,45.34
2016-05-17T08:05:12.011Z,44.86
2016-05-17T08:06:12.013Z,44.88
2016-05-17T08:07:11.970Z,44.57
2016-05-17T08:08:11.956Z,44.69
2016-05-17T08:09:11.943Z,44.79
2016-05-17T08:10:11.915Z,44.4
2016-05-17T08:11:11.902Z,44.12
2016-05-17T08:12:11.889Z,44.31
2016-05-17T08:13:11.861Z,43.83
2016-05-17T08:14:11.847Z,43.16
2016-05-17T08:15:11.835Z,43.63
2016-05-17T08:16:11.821Z,43.52
2016-05-17T08:17:11.808Z,43.35
2016-05-17T08:18:11.780Z,42.97
2016-05-17T08:19:11.767Z,43.04
2016-05-17T08:20:11.738Z,43.23
2016-05-17T08:21:11.726Z,43.04
2016-05-17T08:22:11.712Z,43.06
2016-05-17T08:23:11.685Z,42.58
2016-05-17T08:24:11.671Z,42.87
2016-05-17T08:25:11.659Z,42.87
2016-05-17T08:26:11.629Z,42.3
2016-05-17T08:27:11.617Z,42.01
2016-05-17T08:28:11.604Z,41.82
2016-05-17T08:29:11.606Z,41.82
2016-05-17T08:30:11.562Z,41.44
2016-05-17T08:31:11.581Z,41.91
2016-05-17T08:32:11.537Z,41.72
2016-05-17T08:33:11.523Z,41.34
2016-05-17T08:34:11.495Z,41.63
2016-05-17T08:35:11.482Z,40.98
2016-05-17T08:36:11.470Z,40.21
2016-05-17T08:37:12.425Z,40.78
2016-05-17T08:38:11.428Z,40.59
2016-05-17T08:39:11.415Z,40.02
2016-05-17T08:40:11.402Z,40.41
2016-05-17T08:41:11.373Z,40.12
2016-05-17T08:42:11.361Z,39.35
2016-05-17T08:43:11.347Z,39.54
2016-05-17T08:44:11.335Z,39.25
2016-05-17T08:45:11.321Z,39.35
2016-05-17T08:46:11.293Z,39.35
2016-05-17T08:47:11.280Z,39.45
2016-05-17T08:48:11.267Z,39.45
2016-05-17T08:49:11.254Z,39.16
2016-05-17T08:50:11.226Z,39.16
2016-05-17T08:51:11.212Z,38.96
2016-05-17T08:52:11.199Z,38.96
2016-05-17T08:53:11.187Z,38.78
2016-05-17T08:54:11.174Z,38.68
2016-05-17T08:55:11.177Z,38.59
2016-05-17T08:56:11.132Z,38.68
2016-05-17T08:57:11.120Z,38.51
2016-05-17T08:58:11.091Z,38.41
2016-05-17T08:59:11.078Z,38.22
2016-05-17T09:00:11.065Z,38.22
2016-05-17T09:01:11.052Z,38.03
2016-05-17T09:02:11.054Z,38.03
2016-05-17T09:03:11.026Z,37.84
2016-05-17T09:04:10.997Z,37.57
2016-05-17T09:05:10.984Z,37.28
2016-05-17T09:06:10.972Z,37.38
2016-05-17T09:07:10.958Z,37.57
2016-05-17T09:08:10.945Z,37.28
2016-05-17T09:09:10.933Z,37.57
2016-05-17T09:10:10.920Z,37.38
2016-05-17T09:11:10.892Z,37.18
2016-05-17T09:12:10.878Z,37.09
2016-05-17T09:13:10.866Z,37.38
2016-05-17T09:14:10.852Z,36.99
2016-05-17T09:15:10.840Z,36.82
2016-05-17T09:16:10.827Z,36.91
2016-05-17T09:17:10.814Z,36.34
2016-05-17T09:18:10.801Z,36.16
2016-05-17T09:19:10.788Z,35.97
2016-05-17T09:20:10.774Z,35.88
2016-05-17T09:21:10.762Z,36.07
2016-05-17T09:22:10.749Z,35.3
2016-05-17T09:23:10.783Z,35.42
2016-05-17T09:24:10.724Z,35.4
2016-05-17T09:25:10.710Z,35.4
2016-05-17T09:26:10.698Z,35.59
2016-05-17T09:27:10.685Z,35.49
2016-05-17T09:28:10.671Z,35.49
2016-05-17T09:29:10.659Z,35.3
2016-05-17T09:30:10.646Z,35.22
2016-05-17T09:31:10.632Z,35.32
2016-05-17T09:32:10.620Z,35.32
2016-05-17T09:33:10.607Z,34.84
2016-05-17T09:34:10.595Z,34.65
2016-05-17T09:35:10.581Z,34.84
2016-05-17T09:36:10.568Z,34.94
2016-05-17T09:37:10.556Z,34.47
2016-05-17T09:38:10.542Z,34.47
2016-05-17T09:39:10.529Z,34.67
2016-05-17T09:40:10.517Z,34.38
2016-05-17T09:41:10.503Z,34.28
2016-05-17T09:42:10.491Z,33.9
2016-05-17T09:43:10.478Z,33.44
2016-05-17T09:44:10.464Z,33.82
2016-05-17T09:45:10.452Z,33.53
2016-05-17T09:46:10.438Z,33.53
2016-05-17T09:47:10.425Z,33.61
2016-05-17T09:48:10.413Z,33.42
2016-05-17T09:49:10.399Z,33.24
2016-05-17T09:50:10.387Z,33.15
2016-05-17T09:51:10.390Z,32.95
2016-05-17T09:52:10.361Z,33.15
2016-05-17T09:53:10.349Z,32.95
2016-05-17T09:54:10.352Z,32.76
2016-05-17T09:55:10.337Z,32.67
2016-05-17T09:56:10.325Z,32.95
2016-05-17T09:57:10.313Z,32.67
2016-05-17T09:58:10.299Z,32.76
2016-05-17T09:59:10.287Z,32.76
2016-05-17T10:00:10.273Z,32.76
2016-05-17T10:01:10.260Z,32.67
2016-05-17T10:02:10.279Z,32.28
2016-05-17T10:03:10.406Z,32.18
2016-05-17T10:04:10.221Z,32.1
2016-05-17T10:05:10.209Z,31.92
2016-05-17T10:06:10.226Z,31.92
2016-05-17T10:07:10.308Z,31.82
2016-05-17T10:08:10.186Z,32.01
2016-05-17T10:09:10.298Z,32.1
2016-05-17T10:10:10.159Z,32.01
2016-05-17T10:11:10.147Z,31.82
2016-05-17T10:12:10.133Z,31.62
2016-05-17T10:13:10.121Z,31.82
2016-05-17T10:14:10.108Z,31.72
2016-05-17T10:15:10.111Z,31.53
2016-05-17T10:16:10.145Z,31.43
2016-05-17T10:17:10.069Z,31.15
2016-05-17T10:18:10.072Z,31.24
2016-05-17T10:19:10.059Z,31.15
2016-05-17T10:20:10.046Z,31.34
2016-05-17T10:21:10.033Z,31.34
2016-05-17T10:22:10.036Z,31.34
2016-05-17T10:23:10.007Z,31.53
2016-05-17T10:24:10.010Z,31.53
2016-05-17T10:25:09.996Z,31.24
2016-05-17T10:26:09.985Z,31.05
2016-05-17T10:27:09.971Z,31.15
2016-05-17T10:28:09.957Z,31.15
2016-05-17T10:29:09.946Z,31.43
2016-05-17T10:30:09.932Z,31.15
2016-05-17T10:31:09.918Z,31.34
2016-05-17T10:32:09.907Z,31.34
2016-05-17T10:33:09.893Z,31.24
2016-05-17T10:34:09.896Z,31.43
2016-05-17T10:35:09.884Z,31.53
2016-05-17T10:36:09.870Z,31.34
2016-05-17T10:37:09.856Z,31.15
2016-05-17T10:38:09.845Z,31.24
2016-05-17T10:39:09.831Z,31.15
2016-05-17T10:40:09.818Z,31.05
2016-05-17T10:41:09.806Z,30.76
2016-05-17T10:42:09.793Z,31.05
2016-05-17T10:43:09.780Z,30.95
2016-05-17T10:44:09.767Z,30.76
2016-05-17T10:45:09.754Z,31.24
2016-05-17T10:46:09.741Z,31.24
2016-05-17T10:47:09.728Z,31.53
2016-05-17T10:48:09.715Z,31.7
2016-05-17T10:49:09.702Z,31.9
2016-05-17T10:50:09.689Z,31.8
2016-05-17T10:51:09.692Z,31.9
2016-05-17T10:52:09.664Z,31.61
2016-05-17T10:53:09.650Z,31.61
2016-05-17T10:54:09.638Z,31.53
2016-05-17T10:55:09.624Z,31.53
2016-05-17T10:56:09.611Z,31.8
2016-05-17T10:57:09.599Z,31.7
2016-05-17T10:58:09.585Z,31.61
2016-05-17T10:59:09.573Z,31.61
2016-05-17T11:00:09.560Z,31.8
2016-05-17T11:01:09.547Z,31.51
2016-05-17T11:02:09.534Z,31.43
2016-05-17T11:03:09.552Z,31.24
2016-05-17T11:04:09.523Z,30.76
2016-05-17T11:05:09.495Z,30.49
2016-05-17T11:06:09.482Z,30.58
2016-05-17T11:07:09.469Z,30.58
2016-05-17T11:08:09.456Z,30.57
2016-05-17T11:09:09.459Z,30.47
2016-05-17T11:10:09.446Z,30.38
2016-05-17T11:11:09.433Z,30.57
2016-05-17T11:12:09.420Z,30.85
2016-05-17T11:13:09.406Z,30.76
2016-05-17T11:14:09.394Z,31.15
2016-05-17T11:15:09.381Z,30.76
2016-05-17T11:16:09.368Z,30.85
2016-05-17T11:17:09.371Z,31.34
2016-05-17T11:18:09.342Z,31.23
2016-05-17T11:19:09.330Z,31.62
2016-05-17T11:20:09.317Z,31.51
2016-05-17T11:21:09.304Z,31.61
2016-05-17T11:22:09.290Z,31.51
2016-05-17T11:23:09.277Z,31.7
2016-05-17T11:24:09.266Z,31.7
2016-05-17T11:25:09.236Z,31.8
2016-05-17T11:26:09.224Z,31.7
2016-05-17T11:27:09.227Z,31.9
2016-05-17T11:28:09.197Z,31.61
2016-05-17T11:29:09.185Z,31.61
2016-05-17T11:30:09.171Z,31.8
2016-05-17T11:31:09.159Z,31.32
2016-05-17T11:32:09.146Z,31.24
2016-05-17T11:33:09.133Z,30.76
2016-05-17T11:34:09.120Z,30.85
2016-05-17T11:35:09.107Z,30.57
2016-05-17T11:36:09.110Z,30.47
2016-05-17T11:37:09.081Z,30.18
2016-05-17T11:38:09.130Z,30.66
2016-05-17T11:39:09.056Z,30.18
2016-05-17T11:40:09.042Z,30.47
2016-05-17T11:41:09.029Z,29.91
2016-05-17T11:42:09.017Z,29.72
2016-05-17T11:43:09.003Z,29.24
2016-05-17T11:44:08.990Z,29.14
2016-05-17T11:45:08.977Z,29.33
2016-05-17T11:46:08.964Z,29.04
2016-05-17T11:47:08.952Z,28.37
2016-05-17T11:48:08.939Z,28.47
2016-05-17T11:49:08.925Z,28.47
2016-05-17T11:50:08.928Z,28.27
2016-05-17T11:51:08.916Z,28.47
2016-05-17T11:52:09.121Z,28.47
2016-05-17T11:53:08.889Z,28.66
2016-05-17T11:54:08.877Z,28.75
2016-05-17T11:55:08.863Z,28.47
2016-05-17T11:56:08.851Z,28.58
2016-05-17T11:57:09.025Z,28.48
2016-05-17T11:58:08.824Z,28.38
2016-05-17T11:59:08.813Z,27.51
2016-05-17T12:00:08.816Z,27.61
2016-05-17T12:01:08.785Z,27.51
2016-05-17T12:02:08.773Z,27.23
2016-05-17T12:03:08.760Z,27.13
2016-05-17T12:04:08.748Z,27.23
2016-05-17T12:05:08.734Z,27.13
2016-05-17T12:06:08.722Z,27.23
2016-05-17T12:07:08.709Z,26.94
2016-05-17T12:08:08.695Z,27.04
2016-05-17T12:09:08.682Z,27.13
2016-05-17T12:10:09.029Z,27.04
2016-05-17T12:11:08.656Z,27.23
2016-05-17T12:12:08.644Z,27.22
2016-05-17T12:13:08.647Z,27.31
2016-05-17T12:14:08.618Z,27.12
2016-05-17T12:15:08.605Z,27.22
2016-05-17T12:16:08.592Z,27.22
2016-05-17T12:17:08.579Z,27.02
2016-05-17T12:18:08.566Z,26.93
2016-05-17T12:19:08.553Z,26.73
2016-05-17T12:20:08.541Z,26.73
2016-05-17T12:21:08.528Z,26.54
2016-05-17T12:22:08.514Z,26.07
2016-05-17T12:23:08.517Z,26.07
2016-05-17T12:24:08.488Z,26.17
2016-05-17T12:25:08.475Z,25.88
2016-05-17T12:26:08.463Z,25.98
2016-05-17T12:27:08.450Z,25.88
2016-05-17T12:28:08.437Z,25.88
2016-05-17T12:29:08.440Z,25.59
2016-05-17T12:30:08.427Z,25.98
2016-05-17T12:31:08.414Z,25.88
2016-05-17T12:32:08.401Z,25.88
2016-05-17T12:33:08.388Z,26.17
2016-05-17T12:34:08.375Z,26.35
2016-05-17T12:35:08.362Z,26.64
2016-05-17T12:36:08.349Z,26.35
2016-05-17T12:37:08.711Z,26.25
2016-05-17T12:38:08.323Z,26.45
2016-05-17T12:39:08.295Z,26.62
2016-05-17T12:40:08.282Z,27.11
2016-05-17T12:41:08.268Z,27.2
2016-05-17T12:42:08.256Z,27.49
2016-05-17T12:43:08.243Z,27.95
2016-05-17T12:44:08.231Z,27.95
2016-05-17T12:45:08.217Z,28.05
2016-05-17T12:46:08.204Z,28.44
2016-05-17T12:47:08.176Z,28.34
2016-05-17T12:48:08.162Z,28.61
2016-05-17T12:49:08.149Z,29.19
2016-05-17T12:50:08.136Z,29.19
2016-05-17T12:51:08.124Z,29.38
2016-05-17T12:52:08.095Z,29.28
2016-05-17T12:53:08.082Z,29.19
2016-05-17T12:54:08.085Z,29.38
2016-05-17T12:55:08.056Z,29.67